Time;durP1;ratioP1;P1;durP2;ratioP2;P2;SDS_P1;SDS_P2;PMS_P1;PMS_P2;Temp;Humidity;BMP_temperature;BMP_pressure;BME280_temperature;BME280_humidity;BME280_pressure;Samples;Min_cycle;Max_cycle;Signal;HPM_P1;HPM_P2
2023/03/31 00:01:40;;;;;;;15.68;2.25;;;10.90;99.90;;;;;;5039176;28;20115;-87
2023/03/31 00:04:07;;;;;;;17.58;2.42;;;10.90;99.90;;;;;;5072861;28;20036;-86
2023/03/31 00:06:36;;;;;;;19.13;2.92;;;11.00;99.90;;;;;;5068896;28;20109;-86
2023/03/31 00:09:05;;;;;;;16.15;3.33;;;11.00;99.90;;;;;;5077011;28;20051;-87
2023/03/31 00:11:30;;;;;;;14.40;2.92;;;11.00;99.90;;;;;;5086589;28;20567;-87
2023/03/31 00:13:56;;;;;;;18.35;2.55;;;11.00;99.90;;;;;;5064179;28;20047;-87
2023/03/31 00:16:22;;;;;;;17.73;2.80;;;11.00;99.90;;;;;;5054672;28;20091;-86
2023/03/31 00:18:49;;;;;;;12.18;2.40;;;11.00;99.90;;;;;;5062150;28;20097;-86
2023/03/31 00:21:23;;;;;;;18.13;2.35;;;10.90;99.90;;;;;;5040781;28;20135;-87
2023/03/31 00:23:54;;;;;;;16.80;2.88;;;10.90;99.90;;;;;;5067899;28;20043;-88
2023/03/31 00:26:21;;;;;;;18.83;2.80;;;10.80;99.90;;;;;;5050625;28;20645;-88
2023/03/31 00:28:48;;;;;;;11.68;2.63;;;10.80;99.90;;;;;;5079689;28;20052;-86
2023/03/31 00:31:14;;;;;;;10.68;2.53;;;10.70;99.90;;;;;;5086117;28;20040;-86
2023/03/31 00:33:40;;;;;;;16.85;2.58;;;10.60;99.90;;;;;;5077517;28;20051;-88
2023/03/31 00:36:08;;;;;;;12.48;2.28;;;10.60;99.90;;;;;;5061566;28;20094;-86
2023/03/31 00:38:34;;;;;;;17.05;2.67;;;10.50;99.90;;;;;;5058014;28;20128;-87
2023/03/31 00:41:01;;;;;;;14.40;2.63;;;10.50;99.90;;;;;;5060200;28;20046;-87
2023/03/31 00:43:31;;;;;;;13.02;2.38;;;10.40;99.90;;;;;;5047005;28;20040;-87
2023/03/31 00:46:16;;;;;;;20.27;2.38;;;10.40;99.90;;;;;;5080024;28;20047;-87
2023/03/31 00:49:00;;;;;;;12.25;2.30;;;10.30;99.90;;;;;;5082233;28;20050;-87
2023/03/31 00:51:30;;;;;;;17.63;2.40;;;10.20;99.90;;;;;;5076156;28;20036;-88
2023/03/31 00:54:04;;;;;;;12.52;2.53;;;10.10;99.90;;;;;;5061602;28;20055;-87
2023/03/31 00:56:38;;;;;;;20.27;2.70;;;10.00;99.90;;;;;;5052008;28;20045;-88
2023/03/31 00:59:08;;;;;;;17.35;2.30;;;9.90;99.90;;;;;;5075334;28;20054;-87
2023/03/31 01:01:34;;;;;;;12.23;2.08;;;9.80;99.90;;;;;;5062303;28;20131;-87
2023/03/31 01:04:02;;;;;;;18.83;2.33;;;9.80;99.90;;;;;;5053058;28;20087;-86
2023/03/31 01:06:29;;;;;;;9.73;2.20;;;9.80;99.90;;;;;;5067470;28;20037;-87
2023/03/31 01:08:56;;;;;;;13.85;2.55;;;9.70;99.90;;;;;;5089714;28;20047;-88
2023/03/31 01:11:26;;;;;;;12.93;2.00;;;9.60;99.90;;;;;;5038678;28;20044;-88
2023/03/31 01:13:54;;;;;;;15.00;2.15;;;9.60;99.90;;;;;;5081788;28;20048;-87
2023/03/31 01:16:21;;;;;;;19.60;2.55;;;9.50;99.90;;;;;;5042395;28;20110;-87
2023/03/31 01:18:48;;;;;;;15.68;2.25;;;9.40;99.90;;;;;;5030384;28;20048;-88
2023/03/31 01:21:46;;;;;;;9.18;2.50;;;9.30;99.90;;;;;;5062232;28;20515;-88
2023/03/31 01:24:34;;;;;;;14.57;2.17;;;9.30;99.90;;;;;;5073232;28;20052;-87
2023/03/31 01:27:40;;;;;;;13.82;2.42;;;9.20;99.90;;;;;;5070050;28;20506;-87
2023/03/31 01:30:11;;;;;;;13.95;2.45;;;9.10;99.90;;;;;;5023491;28;20059;-86
2023/03/31 01:32:43;;;;;;;14.73;2.47;;;9.00;99.90;;;;;;5065490;28;20055;-87
2023/03/31 01:35:24;;;;;;;21.00;3.17;;;9.00;99.90;;;;;;5051202;28;20497;-87
2023/03/31 01:38:04;;;;;;;23.55;3.15;;;8.90;99.90;;;;;;5072755;28;20056;-87
2023/03/31 01:40:51;;;;;;;13.73;2.25;;;8.90;1.00;;;;;;5056761;28;20079;-87
2023/03/31 01:43:35;;;;;;;15.60;3.40;;;9.00;1.00;;;;;;5066940;28;20051;-88
2023/03/31 01:46:18;;;;;;;12.73;1.98;;;9.00;1.00;;;;;;5057195;28;20036;-88
2023/03/31 01:49:07;;;;;;;12.98;2.95;;;9.00;1.00;;;;;;5053857;28;20110;-88
2023/03/31 01:52:00;;;;;;;14.90;2.13;;;9.00;1.00;;;;;;5054685;28;20125;-88
2023/03/31 01:54:32;;;;;;;15.23;2.70;;;9.00;1.00;;;;;;5063746;28;20041;-89
2023/03/31 01:57:23;;;;;;;17.90;2.50;;;9.00;1.00;;;;;;5082315;28;20083;-87
2023/03/31 02:00:03;;;;;;;16.48;2.75;;;9.10;1.00;;;;;;5056570;28;20520;-88
2023/03/31 02:02:36;;;;;;;8.43;2.03;;;9.10;1.00;;;;;;5081776;28;20070;-87
2023/03/31 02:05:14;;;;;;;13.32;2.45;;;9.20;1.00;;;;;;5072314;28;20055;-88
2023/03/31 02:07:46;;;;;;;9.00;2.17;;;9.20;1.00;;;;;;5069058;28;20055;-88
2023/03/31 02:10:15;;;;;;;11.05;2.08;;;9.10;1.00;;;;;;5062730;28;20108;-87
2023/03/31 02:12:43;;;;;;;9.63;1.70;;;9.20;1.00;;;;;;5064174;28;20036;-88
2023/03/31 02:15:14;;;;;;;17.10;2.72;;;9.10;1.00;;;;;;5035395;28;20119;-88
2023/03/31 02:17:44;;;;;;;15.32;2.75;;;9.10;1.00;;;;;;5056577;28;20048;-88
2023/03/31 02:20:14;;;;;;;17.13;2.38;;;9.10;1.00;;;;;;5056610;28;20043;-88
2023/03/31 02:22:45;;;;;;;16.13;2.35;;;9.10;1.00;;;;;;5077098;28;20044;-89
2023/03/31 02:25:15;;;;;;;14.80;2.75;;;9.10;1.00;;;;;;5062537;28;20056;-89
2023/03/31 02:27:45;;;;;;;13.77;2.55;;;9.10;1.00;;;;;;5059261;28;20127;-89
2023/03/31 02:30:12;;;;;;;15.63;2.40;;;9.00;1.00;;;;;;5055007;28;20044;-89
2023/03/31 02:32:41;;;;;;;12.90;2.42;;;9.10;1.00;;;;;;5079626;28;20044;-89
2023/03/31 02:35:11;;;;;;;14.27;3.10;;;9.10;1.00;;;;;;5061049;28;21029;-90
2023/03/31 02:37:39;;;;;;;10.50;1.90;;;9.10;1.00;;;;;;5069224;28;20089;-88
2023/03/31 02:40:26;;;;;;;13.88;2.22;;;9.20;1.00;;;;;;5081764;28;20105;-87
2023/03/31 02:42:52;;;;;;;9.15;2.45;;;9.20;1.00;;;;;;5074395;28;20056;-89
2023/03/31 02:45:39;;;;;;;15.25;2.47;;;9.20;1.00;;;;;;5065638;28;20058;-88
2023/03/31 02:48:09;;;;;;;13.05;2.50;;;9.20;1.00;;;;;;5071195;28;20982;-88
2023/03/31 02:51:00;;;;;;;12.27;2.85;;;9.20;1.00;;;;;;5064602;28;20091;-88
2023/03/31 02:53:32;;;;;;;11.98;2.90;;;9.20;1.00;;;;;;5078565;28;20058;-89
2023/03/31 02:56:10;;;;;;;9.75;2.83;;;9.20;1.00;;;;;;5083108;28;20093;-88
2023/03/31 02:58:53;;;;;;;14.75;2.97;;;9.20;1.00;;;;;;5064065;28;20062;-89
2023/03/31 03:01:46;;;;;;;10.23;2.90;;;9.20;1.00;;;;;;5067273;28;20056;-88
2023/03/31 03:04:50;;;;;;;11.80;2.67;;;9.20;1.00;;;;;;5059428;28;20068;-86
2023/03/31 03:07:33;;;;;;;14.10;3.00;;;9.30;1.00;;;;;;5057116;28;20046;-88
2023/03/31 03:10:18;;;;;;;14.93;2.95;;;9.30;1.00;;;;;;5045840;28;20045;-89
2023/03/31 03:12:59;;;;;;;9.60;2.20;;;9.30;1.00;;;;;;5066365;28;20402;-88
2023/03/31 03:15:31;;;;;;;8.55;2.80;;;9.30;1.00;;;;;;5050081;28;20044;-88
2023/03/31 03:17:57;;;;;;;19.55;3.20;;;9.30;1.00;;;;;;5065496;28;20044;-88
2023/03/31 03:20:23;;;;;;;10.30;3.10;;;9.40;1.00;;;;;;5077483;28;20048;-88
2023/03/31 03:22:49;;;;;;;10.18;2.55;;;9.40;1.00;;;;;;5053494;28;20043;-88
2023/03/31 03:25:19;;;;;;;11.57;3.30;;;9.40;1.00;;;;;;5071604;28;20047;-88
2023/03/31 03:27:46;;;;;;;11.63;3.42;;;9.50;1.00;;;;;;5069446;28;20048;-87
2023/03/31 03:30:13;;;;;;;7.32;2.83;;;9.50;1.00;;;;;;5059232;28;20047;-88
2023/03/31 03:32:40;;;;;;;10.77;2.72;;;9.50;1.00;;;;;;5060081;28;20037;-87
2023/03/31 03:35:06;;;;;;;7.30;2.78;;;9.60;1.00;;;;;;5069388;28;20523;-88
2023/03/31 03:37:33;;;;;;;10.35;2.90;;;9.60;1.00;;;;;;5075511;28;20075;-89
2023/03/31 03:39:59;;;;;;;8.68;2.80;;;9.60;1.00;;;;;;5068256;28;20078;-88
2023/03/31 03:42:24;;;;;;;10.93;2.60;;;9.70;1.00;;;;;;5069850;28;20083;-88
2023/03/31 03:44:50;;;;;;;10.95;2.88;;;9.70;1.00;;;;;;5059810;28;20082;-89
2023/03/31 03:47:16;;;;;;;9.13;2.85;;;9.60;1.00;;;;;;5060466;28;20044;-89
2023/03/31 03:49:42;;;;;;;12.02;3.05;;;9.50;1.00;;;;;;5062598;28;20047;-88
2023/03/31 03:52:07;;;;;;;12.27;3.60;;;9.50;1.00;;;;;;5055567;28;20052;-90
2023/03/31 03:54:33;;;;;;;10.20;3.47;;;9.50;1.00;;;;;;5073934;28;20175;-88
2023/03/31 03:56:59;;;;;;;7.75;3.25;;;9.50;1.00;;;;;;5040097;28;20068;-90
2023/03/31 03:59:25;;;;;;;9.75;3.08;;;9.40;1.00;;;;;;5064221;28;20052;-88
2023/03/31 04:01:51;;;;;;;9.20;3.88;;;9.50;1.00;;;;;;5066276;28;20041;-87
2023/03/31 04:04:17;;;;;;;9.93;3.88;;;9.50;1.00;;;;;;5040929;28;20037;-88
2023/03/31 04:06:43;;;;;;;10.30;3.33;;;9.50;1.00;;;;;;5074848;28;20052;-87
2023/03/31 04:09:09;;;;;;;11.20;3.78;;;9.50;1.00;;;;;;5042056;28;20049;-88
2023/03/31 04:11:35;;;;;;;7.65;3.33;;;9.50;24.60;;;;;;5063190;28;20056;-87
2023/03/31 04:14:01;;;;;;;12.88;4.13;;;9.50;20.10;;;;;;5055000;28;20040;-88
2023/03/31 04:16:26;;;;;;;8.25;3.80;;;9.50;28.70;;;;;;5088908;28;20044;-89
2023/03/31 04:18:55;;;;;;;8.27;3.20;;;9.50;45.40;;;;;;5054847;28;20052;-88
2023/03/31 04:21:22;;;;;;;7.38;3.55;;;9.50;51.90;;;;;;5056101;28;20445;-89
2023/03/31 04:23:49;;;;;;;9.70;3.67;;;9.50;60.50;;;;;;5065142;28;20084;-88
2023/03/31 04:26:17;;;;;;;12.00;3.50;;;9.50;73.00;;;;;;5053939;28;20052;-87
2023/03/31 04:28:49;;;;;;;12.68;4.20;;;9.50;74.60;;;;;;5038943;28;20045;-88
2023/03/31 04:31:24;;;;;;;7.88;3.00;;;9.40;77.00;;;;;;5070046;28;20044;-88
2023/03/31 04:33:53;;;;;;;7.70;3.45;;;9.50;95.10;;;;;;5054245;28;20048;-86
2023/03/31 04:36:19;;;;;;;10.48;3.70;;;9.40;96.40;;;;;;5038497;28;20045;-87
2023/03/31 04:38:55;;;;;;;9.10;4.10;;;9.50;98.20;;;;;;5036991;28;20056;-87
2023/03/31 04:41:21;;;;;;;11.23;3.72;;;9.50;99.90;;;;;;5079150;28;20068;-88
2023/03/31 04:43:47;;;;;;;12.73;4.00;;;9.50;99.90;;;;;;5052151;28;20102;-88
2023/03/31 04:46:13;;;;;;;13.70;4.20;;;9.40;99.90;;;;;;5055684;28;20036;-88
2023/03/31 04:48:39;;;;;;;8.90;3.97;;;9.40;99.90;;;;;;5058865;28;20482;-88
2023/03/31 04:51:05;;;;;;;13.23;3.83;;;9.40;99.90;;;;;;5062164;28;20055;-88
2023/03/31 04:53:31;;;;;;;8.60;4.03;;;9.40;99.90;;;;;;5053558;28;20076;-88
2023/03/31 04:55:57;;;;;;;10.10;4.72;;;9.40;99.90;;;;;;5064609;28;20049;-88
2023/03/31 04:58:23;;;;;;;9.15;4.03;;;9.50;99.90;;;;;;5050040;28;20823;-89
2023/03/31 05:00:49;;;;;;;12.25;3.45;;;9.50;99.90;;;;;;5068816;28;20058;-87
2023/03/31 05:03:15;;;;;;;12.23;3.88;;;9.50;99.90;;;;;;5032119;28;20044;-93
2023/03/31 05:05:40;;;;;;;13.45;4.00;;;9.50;99.90;;;;;;5059646;28;20162;-88
2023/03/31 05:08:06;;;;;;;10.60;4.25;;;9.50;99.90;;;;;;5052290;28;20118;-90
2023/03/31 05:10:32;;;;;;;16.00;3.92;;;9.50;99.90;;;;;;5042577;28;20044;-88
2023/03/31 05:12:58;;;;;;;13.82;3.78;;;9.50;99.90;;;;;;5056066;28;20435;-85
2023/03/31 05:15:24;;;;;;;15.35;3.88;;;9.50;99.90;;;;;;5058937;28;20053;-87
2023/03/31 05:17:51;;;;;;;14.20;3.60;;;9.50;99.90;;;;;;5055755;28;20059;-87
2023/03/31 05:20:18;;;;;;;13.02;3.83;;;9.50;99.90;;;;;;5056857;28;20523;-88
2023/03/31 05:22:46;;;;;;;10.88;3.90;;;9.50;99.90;;;;;;5058222;28;20133;-88
2023/03/31 05:25:17;;;;;;;12.05;3.72;;;9.50;99.90;;;;;;5068478;28;20645;-89
2023/03/31 05:27:45;;;;;;;9.02;3.78;;;9.50;99.90;;;;;;5045646;28;20057;-89
2023/03/31 05:30:12;;;;;;;13.05;4.10;;;9.50;99.90;;;;;;5050015;28;20120;-89
2023/03/31 05:32:38;;;;;;;12.60;3.92;;;9.50;99.90;;;;;;5059051;28;20514;-89
2023/03/31 05:35:04;;;;;;;12.23;3.53;;;9.50;99.90;;;;;;5053235;28;20053;-88
2023/03/31 05:37:30;;;;;;;15.48;4.40;;;9.50;99.90;;;;;;5041326;28;20057;-89
2023/03/31 05:39:56;;;;;;;11.32;3.83;;;9.50;99.90;;;;;;5029213;28;20048;-89
2023/03/31 05:42:22;;;;;;;12.00;3.80;;;9.50;99.90;;;;;;5082809;28;20482;-88
2023/03/31 05:44:48;;;;;;;11.93;3.92;;;9.60;99.90;;;;;;5040214;28;20057;-89
2023/03/31 05:47:14;;;;;;;11.50;4.40;;;9.50;99.90;;;;;;5065547;28;20045;-90
2023/03/31 05:49:39;;;;;;;10.95;4.55;;;9.50;99.90;;;;;;5063813;28;20557;-88
2023/03/31 05:52:06;;;;;;;9.73;3.35;;;9.50;99.90;;;;;;5048085;28;20047;-87
2023/03/31 05:54:32;;;;;;;7.93;3.88;;;9.50;99.90;;;;;;5056413;28;20567;-90
2023/03/31 05:56:58;;;;;;;14.57;4.30;;;9.60;99.90;;;;;;5059335;28;20079;-87
2023/03/31 05:59:25;;;;;;;15.02;4.93;;;9.50;99.90;;;;;;5040764;28;20055;-90
2023/03/31 06:01:50;;;;;;;12.70;3.92;;;9.60;99.90;;;;;;5067669;28;20044;-88
2023/03/31 06:04:16;;;;;;;11.98;4.30;;;9.60;99.90;;;;;;5051537;28;20055;-89
2023/03/31 06:06:43;;;;;;;10.85;4.07;;;9.60;99.90;;;;;;5013618;28;20041;-87
2023/03/31 06:09:11;;;;;;;12.75;4.38;;;9.60;99.90;;;;;;5038960;28;20054;-90
2023/03/31 06:11:37;;;;;;;12.05;4.60;;;9.60;99.90;;;;;;5036482;28;20059;-88
2023/03/31 06:14:02;;;;;;;14.60;4.22;;;9.60;99.90;;;;;;5037999;28;20512;-88
2023/03/31 06:16:28;;;;;;;9.52;3.65;;;9.60;99.90;;;;;;5033279;28;20044;-89
2023/03/31 06:18:54;;;;;;;10.45;4.15;;;9.60;99.90;;;;;;5046089;28;20074;-91
2023/03/31 06:21:20;;;;;;;10.25;3.90;;;9.60;99.90;;;;;;5069670;28;20052;-90
2023/03/31 06:23:46;;;;;;;9.32;3.28;;;9.60;99.90;;;;;;5045857;28;21002;-87
2023/03/31 06:26:15;;;;;;;6.63;3.17;;;9.60;99.90;;;;;;5033101;28;20124;-88
2023/03/31 06:28:42;;;;;;;10.00;3.83;;;9.60;99.90;;;;;;5052255;28;20045;-87
2023/03/31 06:31:20;;;;;;;7.53;3.72;;;9.60;99.90;;;;;;5054630;28;20033;-86
2023/03/31 06:33:46;;;;;;;10.75;3.28;;;9.70;99.90;;;;;;5064427;28;20062;-86
2023/03/31 06:36:15;;;;;;;9.10;3.30;;;9.70;99.90;;;;;;5049675;28;20044;-85
2023/03/31 06:38:40;;;;;;;8.45;3.55;;;9.70;99.90;;;;;;5065405;28;20074;-89
2023/03/31 06:41:07;;;;;;;7.60;3.08;;;9.70;99.90;;;;;;5033294;28;20041;-88
2023/03/31 06:43:33;;;;;;;8.75;2.80;;;9.60;99.90;;;;;;5063043;28;20079;-88
2023/03/31 06:46:00;;;;;;;7.45;3.17;;;9.70;99.90;;;;;;5052557;28;20052;-86
2023/03/31 06:48:26;;;;;;;9.85;2.97;;;9.60;99.90;;;;;;5064526;28;20053;-91
2023/03/31 06:50:53;;;;;;;6.47;3.13;;;9.70;99.90;;;;;;5069263;28;20387;-92
2023/03/31 06:53:20;;;;;;;9.70;3.75;;;9.70;99.90;;;;;;5068424;28;20098;-92
2023/03/31 06:55:46;;;;;;;13.48;3.40;;;9.70;99.90;;;;;;5036414;28;20095;-91
2023/03/31 06:58:12;;;;;;;5.70;3.00;;;9.70;99.90;;;;;;5067666;28;20079;-93
2023/03/31 07:00:39;;;;;;;8.05;3.15;;;9.70;99.90;;;;;;5052620;28;20084;-91
2023/03/31 07:03:05;;;;;;;6.03;3.45;;;9.70;99.90;;;;;;5051121;28;20052;-89
2023/03/31 07:05:31;;;;;;;10.23;3.72;;;9.70;99.90;;;;;;5052546;28;20132;-90
2023/03/31 07:07:58;;;;;;;9.75;4.35;;;9.80;99.90;;;;;;5035448;28;20051;-91
2023/03/31 07:10:26;;;;;;;11.20;3.28;;;9.80;99.90;;;;;;5068326;28;20127;-90
2023/03/31 07:12:52;;;;;;;10.65;3.30;;;9.80;99.90;;;;;;5068365;28;20049;-91
2023/03/31 07:15:18;;;;;;;11.50;3.20;;;9.80;99.90;;;;;;5038882;28;20060;-89
2023/03/31 07:17:43;;;;;;;15.15;3.47;;;9.80;99.90;;;;;;5067000;28;20052;-89
2023/03/31 07:20:14;;;;;;;8.60;3.28;;;9.80;99.90;;;;;;5066850;28;20060;-88
2023/03/31 07:22:41;;;;;;;11.07;3.40;;;9.80;99.90;;;;;;5033138;28;20061;-88
2023/03/31 07:25:08;;;;;;;12.98;3.33;;;9.80;99.90;;;;;;5049195;28;20059;-86
2023/03/31 07:27:34;;;;;;;8.57;3.38;;;9.80;99.90;;;;;;5039349;28;20052;-87
2023/03/31 07:30:00;;;;;;;10.23;3.15;;;9.70;99.90;;;;;;5066311;28;20645;-88
2023/03/31 07:32:26;;;;;;;6.20;2.75;;;9.80;99.90;;;;;;5050817;28;20155;-89
2023/03/31 07:34:52;;;;;;;5.30;2.50;;;9.80;99.90;;;;;;5087205;28;20123;-90
2023/03/31 07:37:17;;;;;;;12.40;3.60;;;9.80;99.90;;;;;;5043375;28;20170;-91
2023/03/31 07:39:43;;;;;;;8.63;2.90;;;9.80;99.90;;;;;;5038708;28;20047;-92
2023/03/31 07:42:09;;;;;;;7.05;3.10;;;9.90;99.90;;;;;;5046415;28;20568;-86
2023/03/31 07:44:36;;;;;;;14.07;3.70;;;9.80;99.90;;;;;;5041834;28;20643;-90
2023/03/31 07:47:03;;;;;;;8.38;3.42;;;9.80;99.90;;;;;;5063571;28;20032;-90
2023/03/31 07:49:30;;;;;;;6.68;2.85;;;9.90;99.90;;;;;;5071794;28;20056;-89
2023/03/31 07:51:56;;;;;;;11.80;3.00;;;9.90;99.90;;;;;;5049749;28;20057;-89
2023/03/31 07:54:21;;;;;;;6.18;2.78;;;10.00;99.90;;;;;;5065309;28;20123;-91
2023/03/31 07:56:47;;;;;;;5.53;2.78;;;10.00;99.90;;;;;;5042242;28;20052;-91
2023/03/31 07:59:13;;;;;;;9.77;3.30;;;10.00;99.90;;;;;;5088520;28;20410;-87
2023/03/31 08:01:39;;;;;;;7.90;3.10;;;10.00;99.90;;;;;;5071942;28;20049;-91
2023/03/31 08:04:04;;;;;;;6.50;2.95;;;10.10;99.90;;;;;;5055735;28;20052;-87
2023/03/31 08:06:30;;;;;;;9.88;3.17;;;10.00;99.90;;;;;;5054855;28;20052;-87
2023/03/31 08:08:57;;;;;;;8.15;3.20;;;10.00;99.90;;;;;;5071498;28;20082;-87
2023/03/31 08:11:24;;;;;;;10.13;3.40;;;10.10;99.90;;;;;;5071598;28;20044;-91
2023/03/31 08:13:50;;;;;;;5.75;3.03;;;10.10;99.90;;;;;;5088644;28;20052;-88
2023/03/31 08:16:16;;;;;;;6.45;2.90;;;10.10;99.90;;;;;;5055153;28;20070;-90
2023/03/31 08:18:42;;;;;;;9.38;3.20;;;10.20;99.90;;;;;;5071801;28;20127;-91
2023/03/31 08:21:11;;;;;;;12.35;3.33;;;10.20;99.90;;;;;;5072217;28;20044;-90
2023/03/31 08:23:36;;;;;;;10.20;3.35;;;10.20;99.90;;;;;;5052786;28;20048;-92
2023/03/31 08:26:16;;;;;;;11.27;2.90;;;10.20;99.90;;;;;;5041376;28;20057;-91
2023/03/31 08:28:42;;;;;;;13.25;3.63;;;10.20;99.90;;;;;;5068411;28;20049;-89
2023/03/31 08:31:09;;;;;;;8.38;3.30;;;10.20;99.90;;;;;;5083458;28;20047;-84
2023/03/31 08:33:36;;;;;;;7.10;2.85;;;10.20;99.90;;;;;;5059932;28;20041;-85
2023/03/31 08:36:07;;;;;;;9.05;2.97;;;10.20;99.90;;;;;;5038490;28;20048;-85
2023/03/31 08:38:38;;;;;;;9.18;3.22;;;10.30;99.90;;;;;;5067079;28;20048;-85
2023/03/31 08:41:11;;;;;;;8.98;2.97;;;10.30;99.90;;;;;;5052921;28;20135;-85
2023/03/31 08:43:42;;;;;;;9.88;3.60;;;10.30;99.90;;;;;;5058481;28;20052;-86
2023/03/31 08:46:15;;;;;;;9.32;3.40;;;10.30;99.90;;;;;;5057056;28;20053;-86
2023/03/31 08:48:47;;;;;;;9.50;3.10;;;10.40;99.90;;;;;;5073079;28;20048;-88
2023/03/31 08:51:17;;;;;;;13.25;3.42;;;10.40;99.90;;;;;;5041514;28;20565;-92
2023/03/31 08:53:51;;;;;;;10.48;3.60;;;10.40;99.90;;;;;;5066615;28;20040;-88
2023/03/31 08:56:21;;;;;;;9.45;3.08;;;10.40;99.90;;;;;;5065095;28;20371;-87
2023/03/31 08:58:49;;;;;;;11.35;3.40;;;10.40;99.90;;;;;;5065368;28;20140;-84
2023/03/31 09:01:41;;;;;;;9.35;2.90;;;10.40;99.90;;;;;;5054012;28;20033;-84
2023/03/31 09:04:31;;;;;;;10.40;3.35;;;10.40;99.90;;;;;;5063631;28;20113;-82
2023/03/31 09:07:19;;;;;;;14.38;3.17;;;10.50;99.90;;;;;;5065707;28;20811;-84
2023/03/31 09:10:10;;;;;;;9.52;3.35;;;10.50;99.90;;;;;;5079145;28;20135;-86
2023/03/31 09:12:47;;;;;;;9.35;3.22;;;10.50;99.90;;;;;;5054036;28;20045;-86
2023/03/31 09:15:29;;;;;;;11.68;3.67;;;10.50;99.90;;;;;;5064244;28;20083;-88
2023/03/31 09:18:02;;;;;;;8.85;3.20;;;10.60;99.90;;;;;;5048302;28;20079;-88
2023/03/31 09:20:33;;;;;;;8.80;3.03;;;10.60;99.90;;;;;;5083727;28;20055;-87
2023/03/31 09:23:22;;;;;;;11.52;3.63;;;10.60;99.90;;;;;;5063391;28;20067;-86
2023/03/31 09:25:48;;;;;;;7.68;3.47;;;10.70;99.90;;;;;;5051243;28;20048;-88
2023/03/31 09:28:37;;;;;;;8.93;3.47;;;10.80;99.90;;;;;;5064146;28;20090;-86
2023/03/31 09:31:14;;;;;;;8.15;3.25;;;10.90;99.90;;;;;;5053177;28;20037;-87
2023/03/31 09:33:45;;;;;;;9.90;3.70;;;11.00;99.90;;;;;;5057822;28;20051;-86
2023/03/31 09:36:28;;;;;;;7.18;2.88;;;11.10;99.90;;;;;;5082713;28;20091;-87
2023/03/31 09:38:54;;;;;;;11.77;3.72;;;11.10;99.90;;;;;;5056309;28;20044;-88
2023/03/31 09:41:20;;;;;;;10.07;3.00;;;11.00;99.90;;;;;;5048300;28;20040;-88
2023/03/31 09:43:48;;;;;;;6.22;3.10;;;11.00;99.90;;;;;;5034862;28;20033;-85
2023/03/31 09:46:25;;;;;;;10.05;3.30;;;11.10;99.90;;;;;;5061267;28;20816;-86
2023/03/31 09:49:04;;;;;;;9.20;3.72;;;11.30;99.90;;;;;;5057834;28;20760;-86
2023/03/31 09:51:33;;;;;;;7.10;3.17;;;11.40;99.90;;;;;;5051420;28;20041;-87
2023/03/31 09:54:15;;;;;;;6.35;2.70;;;11.30;99.90;;;;;;5078943;28;20044;-87
2023/03/31 09:56:40;;;;;;;6.45;2.88;;;11.30;99.90;;;;;;5052523;28;20075;-85
2023/03/31 09:59:20;;;;;;;9.90;2.95;;;11.20;99.90;;;;;;5053115;28;20143;-85
2023/03/31 10:01:51;;;;;;;8.43;3.20;;;11.10;99.90;;;;;;5068234;28;20408;-85
2023/03/31 10:04:26;;;;;;;5.97;2.75;;;11.00;99.90;;;;;;5081006;28;20131;-84
2023/03/31 10:06:53;;;;;;;6.25;2.85;;;11.00;99.90;;;;;;5067298;28;20358;-84
2023/03/31 10:09:23;;;;;;;9.63;3.28;;;11.10;99.90;;;;;;5044577;28;20448;-85
2023/03/31 10:12:16;;;;;;;7.25;2.30;;;11.30;99.90;;;;;;5054298;28;20063;-86
2023/03/31 10:14:47;;;;;;;6.72;2.55;;;11.40;99.90;;;;;;5037383;28;20402;-85
2023/03/31 10:17:16;;;;;;;4.35;2.25;;;11.50;99.90;;;;;;5053101;28;20478;-85
2023/03/31 10:19:54;;;;;;;4.05;2.00;;;11.50;99.90;;;;;;5067447;28;20049;-85
2023/03/31 10:22:20;;;;;;;6.40;2.17;;;11.50;99.90;;;;;;5047463;28;20072;-87
2023/03/31 10:24:47;;;;;;;3.83;1.92;;;11.50;99.90;;;;;;5040591;28;20079;-85
2023/03/31 10:27:28;;;;;;;2.80;1.75;;;11.60;99.90;;;;;;5048136;28;20053;-85
2023/03/31 10:30:00;;;;;;;5.78;2.10;;;11.80;99.90;;;;;;5056590;28;20056;-87
2023/03/31 10:32:42;;;;;;;5.55;2.15;;;11.80;99.90;;;;;;5074546;28;20090;-85
2023/03/31 10:35:31;;;;;;;5.13;1.83;;;11.80;99.90;;;;;;5047709;28;20056;-83
2023/03/31 10:38:01;;;;;;;4.78;2.38;;;11.80;99.90;;;;;;5055465;28;20068;-87
2023/03/31 10:40:30;;;;;;;8.40;2.35;;;11.70;99.90;;;;;;5064040;28;20049;-88
2023/03/31 10:43:24;;;;;;;6.47;2.50;;;11.70;99.90;;;;;;5077177;28;20068;-87
2023/03/31 10:45:53;;;;;;;4.32;1.70;;;11.80;99.90;;;;;;5065927;28;20036;-87
2023/03/31 10:48:28;;;;;;;4.70;2.25;;;12.10;99.90;;;;;;5083182;28;20060;-87
2023/03/31 10:51:10;;;;;;;4.70;2.30;;;12.20;99.90;;;;;;5059494;28;20045;-86
2023/03/31 10:53:41;;;;;;;3.80;2.13;;;12.30;99.90;;;;;;5071949;28;20052;-85
2023/03/31 10:56:23;;;;;;;3.58;1.83;;;12.50;99.90;;;;;;5067888;28;20052;-88
2023/03/31 10:59:13;;;;;;;5.68;2.88;;;12.90;99.90;;;;;;5073693;28;20071;-88
2023/03/31 11:01:58;;;;;;;8.68;2.70;;;13.10;99.90;;;;;;5067196;28;20063;-88
2023/03/31 11:04:43;;;;;;;5.22;2.35;;;13.40;99.90;;;;;;5067719;28;20152;-88
2023/03/31 11:07:47;;;;;;;7.88;2.40;;;13.70;99.90;;;;;;5051719;28;20115;-88
2023/03/31 11:10:41;;;;;;;5.82;2.20;;;13.70;99.60;;;;;;5059075;28;20097;-87
2023/03/31 11:13:16;;;;;;;4.75;2.15;;;13.70;56.80;;;;;;5052341;28;20040;-88
2023/03/31 11:15:59;;;;;;;4.50;1.70;;;13.50;91.70;;;;;;5053738;28;20128;-88
2023/03/31 11:18:39;;;;;;;4.65;1.73;;;13.50;99.90;;;;;;5067116;28;20041;-84
2023/03/31 11:21:31;;;;;;;2.35;1.35;;;13.30;50.60;;;;;;5065016;28;20112;-87
2023/03/31 11:24:26;;;;;;;6.13;1.63;;;13.00;92.40;;;;;;5052018;28;20049;-86
2023/03/31 11:27:23;;;;;;;6.43;1.75;;;12.80;99.90;;;;;;5047093;28;20075;-85
2023/03/31 11:30:11;;;;;;;5.78;1.70;;;12.70;99.90;;;;;;5049004;28;20094;-85
2023/03/31 11:32:52;;;;;;;3.03;1.80;;;12.60;99.90;;;;;;5054361;28;21055;-85
2023/03/31 11:35:42;;;;;;;6.88;1.70;;;12.50;99.90;;;;;;5050601;28;20053;-85
2023/03/31 11:38:23;;;;;;;4.65;1.70;;;12.50;99.90;;;;;;5067866;28;20123;-86
2023/03/31 11:40:58;;;;;;;4.72;1.70;;;12.80;99.90;;;;;;5047111;28;20102;-86
2023/03/31 11:43:32;;;;;;;4.63;1.70;;;13.20;99.90;;;;;;5063389;28;20072;-86
2023/03/31 11:46:11;;;;;;;3.50;1.67;;;13.20;99.90;;;;;;5069334;28;20072;-86
2023/03/31 11:48:51;;;;;;;7.45;1.85;;;13.20;99.90;;;;;;5070144;28;20063;-86
2023/03/31 11:51:53;;;;;;;5.15;1.70;;;13.00;99.90;;;;;;5075424;28;20040;-87
2023/03/31 11:54:32;;;;;;;5.22;1.90;;;12.80;99.90;;;;;;5060814;28;20144;-86
2023/03/31 11:57:15;;;;;;;5.53;2.38;;;12.70;99.90;;;;;;5051650;28;20969;-85
2023/03/31 11:59:42;;;;;;;5.93;2.13;;;12.70;99.90;;;;;;5057063;28;20055;-85
2023/03/31 12:02:18;;;;;;;4.15;2.17;;;13.00;99.90;;;;;;5059126;28;20072;-86
2023/03/31 12:04:55;;;;;;;4.35;1.90;;;13.30;99.90;;;;;;5039519;28;20052;-85
2023/03/31 12:07:31;;;;;;;7.45;2.20;;;13.40;99.90;;;;;;5062593;28;20396;-87
2023/03/31 12:10:07;;;;;;;7.30;2.60;;;13.60;99.90;;;;;;5059418;28;20047;-87
2023/03/31 12:12:34;;;;;;;;;;;13.70;99.90;;;;;;5051618;28;20165;-87
2023/03/31 12:15:28;;;;;;;5.85;1.98;;;13.40;28.60;;;;;;5078117;28;19972;-90
2023/03/31 12:18:19;;;;;;;4.88;1.98;;;13.10;93.50;;;;;;5055950;28;20440;-88
2023/03/31 12:21:01;;;;;;;6.15;2.25;;;12.90;99.90;;;;;;5081448;28;20058;-86
2023/03/31 12:23:30;;;;;;;3.83;2.17;;;12.80;99.90;;;;;;5065271;28;20048;-87
2023/03/31 12:26:13;;;;;;;6.03;2.10;;;12.70;99.90;;;;;;5083646;28;20614;-87
2023/03/31 12:28:41;;;;;;;8.05;2.67;;;12.70;99.90;;;;;;5068207;28;20048;-87
2023/03/31 12:31:16;;;;;;;6.47;2.40;;;12.80;99.90;;;;;;5067165;28;20036;-89
2023/03/31 12:33:54;;;;;;;6.88;2.20;;;12.90;99.90;;;;;;5089363;28;20036;-88
2023/03/31 12:36:31;;;;;;;7.35;2.50;;;13.10;99.90;;;;;;5057315;28;20104;-88
2023/03/31 12:39:20;;;;;;;7.07;2.42;;;13.40;99.90;;;;;;5060662;28;20071;-84
2023/03/31 12:42:04;;;;;;;9.25;3.35;;;13.60;99.90;;;;;;5052056;28;20056;-85
2023/03/31 12:44:54;;;;;;;9.88;3.00;;;13.70;99.90;;;;;;5073165;28;20052;-86
2023/03/31 12:47:49;;;;;;;5.25;2.67;;;13.90;99.90;;;;;;5072712;28;20389;-85
2023/03/31 12:50:47;;;;;;;7.20;2.60;;;13.90;99.90;;;;;;5055903;28;20051;-88
2023/03/31 12:53:37;;;;;;;7.32;2.20;;;13.90;99.90;;;;;;5073939;28;20506;-90
2023/03/31 12:56:03;;;;;;;7.65;2.30;;;14.20;99.90;;;;;;5050134;28;20095;-85
2023/03/31 12:58:30;;;;;;;9.95;3.22;;;14.50;99.90;;;;;;5074249;28;20083;-89
2023/03/31 13:01:20;;;;;;;9.07;2.40;;;14.50;81.70;;;;;;5056297;28;20051;-89
2023/03/31 13:03:49;;;;;;;7.70;2.40;;;14.10;31.80;;;;;;5064401;28;20048;-87
2023/03/31 13:06:27;;;;;;;6.70;2.50;;;13.70;47.60;;;;;;5069902;28;20056;-87
2023/03/31 13:08:52;;;;;;;8.70;2.60;;;13.40;81.30;;;;;;5046813;28;20545;-87
2023/03/31 13:11:21;;;;;;;8.63;2.20;;;13.30;94.00;;;;;;5069355;28;20040;-87
2023/03/31 13:14:26;;;;;;;7.97;2.70;;;13.10;95.60;;;;;;5066605;28;20409;-86
2023/03/31 13:17:10;;;;;;;9.70;2.90;;;13.00;98.90;;;;;;5070775;28;20056;-84
2023/03/31 13:19:36;;;;;;;8.52;2.63;;;12.80;99.90;;;;;;5070875;28;20055;-86